»·PEaware :: SKW5331 KSLC-KSFO

SKW5331 :: KSLC-KSFO

FLIGHT INFORMATION

Flight Status: Arrived
Operator:
SkyWest Airlines
More flights by this operator :: More flights under this callsign
Pilot: James C. (37539)
Aircraft: EMBRAER EMB-170/175
(E170)
More flights by this aircraft type
Origin: KSLC Salt Lake City Intl
United States
Destination: KSFO San Francisco Intl
United States
More flights between these airports :: More routes between these airports
Route: DEZRT1 BAM J94 LLC LEGGS BDEGA3
File this flight plan on PilotEdge
Remarks: RMK / SIMBRIEF
Altitude:
(Current/Filed)
32,000ft
Speed:
(Current/Filed)
425kts
Departed: 23-Feb-22 08:36 AM
Arrived: 23-Feb-22 10:17 AM
Distance/Time
Traveled:
520nm/1:41
Distance/Time
To Go:
Arrived

Flight Plot

Page will automatically refresh every two minutes.

Flight plan parsing failed; only flown route is shown


Map Options




Map Legend


Flown Route
Filed Route
Departure Airport
Arrival Airport
Navaid (VOR, NDB)
Fix

Horizontal Profiles

Position Reports

Time Latitude Longitude Heading Altitude Ground
Speed
23-Feb-22 07:56 40.787342 -111.981092 285 4238ft 0kts
23-Feb-22 07:57 40.787342 -111.981092 285 4238ft 0kts
23-Feb-22 07:58 40.787342 -111.981092 285 4238ft 0kts
23-Feb-22 07:59 40.787342 -111.981092 285 4238ft 0kts
23-Feb-22 08:00 40.787342 -111.981092 285 4238ft 0kts
23-Feb-22 08:01 40.787342 -111.981092 285 4238ft 0kts
23-Feb-22 08:02 40.787342 -111.981092 285 4238ft 0kts
23-Feb-22 08:03 40.787342 -111.981092 285 4238ft 0kts
23-Feb-22 08:04 40.787342 -111.981092 285 4238ft 0kts
23-Feb-22 08:05 40.787342 -111.981092 285 4238ft 0kts
23-Feb-22 08:06 40.787342 -111.981092 285 4238ft 0kts
23-Feb-22 08:07 40.787342 -111.981092 285 4238ft 0kts
23-Feb-22 08:08 40.787342 -111.981092 285 4238ft 0kts
23-Feb-22 08:09 40.787342 -111.981092 285 4238ft 0kts
23-Feb-22 08:10 40.787342 -111.981092 285 4238ft 0kts
23-Feb-22 08:11 40.787342 -111.981092 285 4238ft 0kts
23-Feb-22 08:12 40.787181 -111.980314 285 4238ft 2kts
23-Feb-22 08:13 40.787138 -111.980108 285 4238ft 0kts
23-Feb-22 08:14 40.787138 -111.980108 285 4238ft 0kts
23-Feb-22 08:15 40.787138 -111.980108 285 4238ft 0kts
23-Feb-22 08:16 40.787566 -111.980211 22 4238ft 6kts
23-Feb-22 08:17 40.788290 -111.979862 12 4238ft 11kts
23-Feb-22 08:18 40.790833 -111.978977 359 4238ft 0kts
23-Feb-22 08:19 40.791029 -111.978977 1 4238ft 9kts
23-Feb-22 08:20 40.789748 -111.976974 175 4238ft 15kts
23-Feb-22 08:21 40.785165 -111.976454 174 4238ft 17kts
23-Feb-22 08:22 40.780084 -111.975831 174 4238ft 19kts
23-Feb-22 08:23 40.775355 -111.976889 181 4238ft 17kts
23-Feb-22 08:24 40.773717 -111.976332 30 4238ft 0kts
23-Feb-22 08:25 40.773717 -111.976332 30 4238ft 0kts
23-Feb-22 08:26 40.773717 -111.976332 30 4238ft 0kts
23-Feb-22 08:27 40.773717 -111.976332 30 4238ft 0kts
23-Feb-22 08:28 40.773717 -111.976332 30 4238ft 0kts
23-Feb-22 08:29 40.773717 -111.976332 30 4238ft 0kts
23-Feb-22 08:30 40.773717 -111.976332 30 4238ft 0kts
23-Feb-22 08:31 40.773972 -111.976136 30 4238ft 0kts
23-Feb-22 08:32 40.774443 -111.974240 68 4238ft 0kts
23-Feb-22 08:33 40.774443 -111.974240 68 4238ft 0kts
23-Feb-22 08:34 40.774494 -111.974083 62 4238ft 2kts
23-Feb-22 08:35 40.782961 -111.974184 355 4238ft 120kts
23-Feb-22 08:36 40.829499 -111.986775 310 6379ft 168kts
23-Feb-22 08:37 40.862698 -112.044723 307 7961ft 244kts
23-Feb-22 08:38 40.880633 -112.132253 264 9806ft 264kts
23-Feb-22 08:39 40.878058 -112.229808 269 11131ft 267kts
23-Feb-22 08:40 40.875328 -112.327051 266 14401ft 270kts
23-Feb-22 08:41 40.872001 -112.429044 265 14956ft 279kts
23-Feb-22 08:42 40.865661 -112.530945 262 14999ft 278kts
23-Feb-22 08:43 40.857686 -112.636671 261 14981ft 320kts
23-Feb-22 08:44 40.847204 -112.760297 262 14907ft 347kts
23-Feb-22 08:45 40.841576 -112.888396 268 14820ft 352kts
23-Feb-22 08:46 40.842018 -113.021057 268 17465ft 360kts
23-Feb-22 08:47 40.842312 -113.155337 267 19830ft 373kts
23-Feb-22 08:48 40.842479 -113.294602 267 22085ft 385kts
23-Feb-22 08:49 40.842503 -113.437148 266 24165ft 395kts
23-Feb-22 08:50 40.842347 -113.584533 267 26013ft 406kts
23-Feb-22 08:51 40.842035 -113.733154 267 28028ft 404kts
23-Feb-22 08:52 40.841475 -113.880237 267 29967ft 397kts
23-Feb-22 08:53 40.840485 -114.025790 268 31510ft 396kts
23-Feb-22 08:54 40.839291 -114.172761 268 31939ft 398kts
23-Feb-22 08:55 40.837968 -114.316516 268 31937ft 388kts
23-Feb-22 08:56 40.836472 -114.458804 268 31938ft 387kts
23-Feb-22 08:57 40.834803 -114.601089 268 31940ft 388kts
23-Feb-22 08:58 40.832842 -114.743552 267 31941ft 388kts
23-Feb-22 08:59 40.817427 -114.884780 261 31948ft 388kts
23-Feb-22 09:00 40.801669 -115.026181 262 31954ft 390kts
23-Feb-22 09:01 40.785589 -115.167903 262 31957ft 390kts
23-Feb-22 09:02 40.769285 -115.309563 262 31956ft 391kts
23-Feb-22 09:03 40.752744 -115.451141 262 31957ft 391kts
23-Feb-22 09:04 40.735877 -115.592870 262 31957ft 391kts
23-Feb-22 09:05 40.718855 -115.734355 261 31957ft 392kts
23-Feb-22 09:06 40.701411 -115.877817 261 31962ft 398kts
23-Feb-22 09:07 40.683833 -116.020797 262 31966ft 393kts
23-Feb-22 09:08 40.666097 -116.163616 262 31978ft 395kts
23-Feb-22 09:09 40.648188 -116.306348 262 31996ft 395kts
23-Feb-22 09:10 40.630059 -116.449348 262 32016ft 396kts
23-Feb-22 09:11 40.611734 -116.592398 262 32033ft 397kts
23-Feb-22 09:12 40.593137 -116.736100 262 32044ft 397kts
23-Feb-22 09:13 40.574396 -116.879462 262 32048ft 398kts
23-Feb-22 09:14 40.543068 -117.019383 253 32050ft 401kts
23-Feb-22 09:15 40.506989 -117.158433 254 32049ft 402kts
23-Feb-22 09:16 40.470659 -117.297497 254 32052ft 402kts
23-Feb-22 09:17 40.434193 -117.435964 254 32056ft 403kts
23-Feb-22 09:18 40.397277 -117.575225 254 32061ft 402kts
23-Feb-22 09:19 40.360353 -117.713674 254 32066ft 402kts
23-Feb-22 09:20 40.323223 -117.852126 254 32078ft 403kts
23-Feb-22 09:21 40.285925 -117.990404 254 32087ft 402kts
23-Feb-22 09:22 40.248474 -118.128502 254 32094ft 403kts
23-Feb-22 09:23 40.210803 -118.266641 254 32101ft 403kts
23-Feb-22 09:24 40.173009 -118.404480 254 32106ft 404kts
23-Feb-22 09:25 40.134856 -118.542876 254 32108ft 405kts
23-Feb-22 09:26 40.094612 -118.680960 253 32108ft 408kts
23-Feb-22 09:27 40.052923 -118.818949 253 32108ft 409kts
23-Feb-22 09:28 40.010998 -118.957282 253 32106ft 410kts
23-Feb-22 09:29 39.969139 -119.094754 253 32104ft 404kts
23-Feb-22 09:30 39.927402 -119.231358 254 32104ft 406kts
23-Feb-22 09:31 39.885309 -119.368470 254 32104ft 408kts
23-Feb-22 09:32 39.843000 -119.505562 254 32104ft 410kts
23-Feb-22 09:33 39.800268 -119.643319 254 32097ft 411kts
23-Feb-22 09:34 39.757270 -119.781232 254 32090ft 412kts
23-Feb-22 09:35 39.714006 -119.919282 254 32088ft 412kts
23-Feb-22 09:36 39.670579 -120.057168 254 32075ft 413kts
23-Feb-22 09:37 39.626931 -120.195080 254 32020ft 413kts
23-Feb-22 09:38 39.583216 -120.332429 255 31991ft 410kts
23-Feb-22 09:39 39.539623 -120.468839 255 31991ft 411kts
23-Feb-22 09:40 39.495739 -120.605439 255 31991ft 410kts
23-Feb-22 09:41 39.451702 -120.741877 255 31995ft 411kts
23-Feb-22 09:42 39.407434 -120.878338 256 32001ft 411kts
23-Feb-22 09:43 39.362983 -121.014714 256 32033ft 412kts
23-Feb-22 09:44 39.306209 -121.144655 236 32098ft 433kts
23-Feb-22 09:45 39.228068 -121.262802 238 32150ft 433kts
23-Feb-22 09:46 39.150565 -121.381050 238 32158ft 432kts
23-Feb-22 09:47 39.072891 -121.499407 239 32164ft 433kts
23-Feb-22 09:48 38.995222 -121.617328 239 32166ft 432kts
23-Feb-22 09:50 38.917422 -121.735087 239 32171ft 432kts
23-Feb-22 09:51 38.839680 -121.852295 239 32173ft 432kts
23-Feb-22 09:52 38.761831 -121.969230 239 32174ft 430kts
23-Feb-22 09:53 38.683980 -122.085752 240 32175ft 429kts
23-Feb-22 09:54 38.606336 -122.201547 241 32174ft 429kts
23-Feb-22 09:55 38.526185 -122.321388 241 30369ft 466kts
23-Feb-22 09:56 38.440801 -122.447559 240 27820ft 468kts
23-Feb-22 09:57 38.356680 -122.571929 240 25379ft 457kts
23-Feb-22 09:58 38.275014 -122.692526 239 22986ft 440kts
23-Feb-22 09:59 38.174118 -122.770374 179 20634ft 460kts
23-Feb-22 10:00 38.053329 -122.730620 161 18187ft 437kts
23-Feb-22 10:01 37.940699 -122.690398 164 15736ft 409kts
23-Feb-22 10:02 37.847130 -122.628405 135 13144ft 368kts
23-Feb-22 10:03 37.774159 -122.546049 136 11515ft 333kts
23-Feb-22 10:04 37.707540 -122.472968 137 11017ft 306kts
23-Feb-22 10:05 37.642607 -122.405290 148 10978ft 302kts
23-Feb-22 10:06 37.568192 -122.359668 154 9646ft 295kts
23-Feb-22 10:07 37.495669 -122.316486 154 8536ft 262kts
23-Feb-22 10:08 37.440729 -122.268799 116 7050ft 232kts
23-Feb-22 10:08 37.414905 -122.210253 100 6136ft 225kts
23-Feb-22 10:10 37.451288 -122.158285 25 4865ft 171kts
23-Feb-22 10:11 37.494539 -122.150781 328 3289ft 167kts
23-Feb-22 10:12 37.531851 -122.186993 324 3018ft 171kts
23-Feb-22 10:13 37.559799 -122.233474 299 2280ft 155kts
23-Feb-22 10:13 37.575699 -122.272714 301 1539ft 143kts
23-Feb-22 10:14 37.593679 -122.315402 303 794ft 136kts
23-Feb-22 10:16 37.613842 -122.363555 302 24ft 109kts
23-Feb-22 10:17 37.620523 -122.379374 299 24ft 29kts
23-Feb-22 10:17 37.622007 -122.385077 283 24ft 6kts
23-Feb-22 10:18 37.622081 -122.385767 247 24ft 2kts
23-Feb-22 10:19 37.621270 -122.387531 160 24ft 7kts
23-Feb-22 10:21 37.620622 -122.387696 208 24ft 0kts
23-Feb-22 10:21 37.620622 -122.387696 208 24ft 0kts
23-Feb-22 10:22 37.620622 -122.387696 208 24ft 0kts
23-Feb-22 10:23 37.620622 -122.387696 208 24ft 0kts

Navigation Log

Ident Type
Flight plan parsing failed, navigation log unavailable